Time;durP1;ratioP1;P1;durP2;ratioP2;P2;SDS_P1;SDS_P2;PMS_P1;PMS_P2;Temp;Humidity;BMP_temperature;BMP_pressure;BME280_temperature;BME280_humidity;BME280_pressure;Samples;Min_cycle;Max_cycle;Signal;HPM_P1;HPM_P2
2023/04/19 00:01:32;;;;;;;6.00;4.20;;;;;;;9.81;100.00;99219.88;105328;1265;75532;-81
2023/04/19 00:04:02;;;;;;;4.90;4.20;;;;;;;9.79;100.00;99214.88;105270;1265;68737;-85
2023/04/19 00:06:30;;;;;;;4.40;4.00;;;;;;;9.94;100.00;99215.26;105217;1265;74080;-88
2023/04/19 00:08:59;;;;;;;5.40;4.00;;;;;;;9.84;100.00;99208.13;105166;1265;61282;-83
2023/04/19 00:11:27;;;;;;;4.90;4.10;;;;;;;9.89;100.00;99212.38;105281;1265;61295;-84
2023/04/19 00:13:55;;;;;;;5.00;4.10;;;;;;;9.98;100.00;99209.06;105302;1265;75751;-85
2023/04/19 00:16:23;;;;;;;8.10;4.20;;;;;;;10.01;100.00;99210.96;105329;1265;69691;-85
2023/04/19 00:18:51;;;;;;;6.60;4.70;;;;;;;10.07;100.00;99210.84;105236;1269;71376;-85
2023/04/19 00:21:19;;;;;;;24.00;12.20;;;;;;;10.12;100.00;99206.04;105285;1269;61898;-84
2023/04/19 00:23:48;;;;;;;24.10;13.20;;;;;;;10.07;100.00;99203.54;105192;1265;61275;-82
2023/04/19 00:26:16;;;;;;;15.10;8.50;;;;;;;10.02;100.00;99203.35;105224;1265;75465;-82
2023/04/19 00:28:47;;;;;;;13.90;6.80;;;;;;;9.82;100.00;99198.55;105207;1265;69623;-85
2023/04/19 00:31:16;;;;;;;20.50;13.30;;;;;;;9.85;100.00;99198.03;105200;1270;71766;-82
2023/04/19 00:33:44;;;;;;;19.10;12.60;;;;;;;9.84;100.00;99191.86;105269;1269;61840;-84
2023/04/19 00:36:12;;;;;;;14.40;9.80;;;;;;;9.80;100.00;99191.94;105344;1265;61274;-84
2023/04/19 00:38:40;;;;;;;11.50;8.00;;;;;;;9.82;100.00;99188.80;105333;1265;75557;-82
2023/04/19 00:41:10;;;;;;;18.70;7.20;;;;;;;9.88;100.00;99183.80;105297;1265;69229;-83
2023/04/19 00:43:38;;;;;;;8.20;5.60;;;;;;;9.94;100.00;99178.94;105315;1265;72582;-82
2023/04/19 00:46:06;;;;;;;9.70;5.60;;;;;;;9.97;100.00;99175.92;105348;1265;62595;-83
2023/04/19 00:48:35;;;;;;;9.10;5.30;;;;;;;9.98;100.00;99180.48;105297;1265;61358;-82
2023/04/19 00:51:03;;;;;;;7.00;5.40;;;;;;;10.05;100.00;99175.48;105355;1267;75394;-83
2023/04/19 00:53:32;;;;;;;6.30;4.40;;;;;;;9.93;100.00;99172.89;105447;1270;67873;-83
2023/04/19 00:56:00;;;;;;;6.40;4.70;;;;;;;9.78;100.00;99168.88;105225;1265;73717;-82
2023/04/19 00:58:30;;;;;;;6.80;4.20;;;;;;;9.81;100.00;99167.52;105194;1265;61767;-82
2023/04/19 01:00:59;;;;;;;9.00;4.80;;;;;;;10.06;100.00;99168.14;105435;1270;61346;-83
2023/04/19 01:03:30;;;;;;;5.30;4.50;;;;;;;10.04;100.00;99164.85;105476;1265;74986;-86
2023/04/19 01:05:59;;;;;;;;;;;;;;;9.96;99.99;99162.71;105400;1265;69844;-83
2023/04/19 01:08:27;;;;;;;4.90;4.30;;;;;;;10.10;98.67;99165.60;105407;1265;73657;-83
2023/04/19 01:10:55;;;;;;;9.00;5.10;;;;;;;10.13;97.72;99160.02;105269;1265;62821;-83
2023/04/19 01:13:23;;;;;;;8.00;5.10;;;;;;;10.05;97.91;99158.15;105224;1265;61342;-84
2023/04/19 01:15:52;;;;;;;5.70;4.20;;;;;;;10.06;97.02;99155.80;105408;1264;75274;-84
2023/04/19 01:18:23;;;;;;;5.20;4.40;;;;;;;10.08;97.13;99156.09;105253;1265;69084;-83
2023/04/19 01:20:51;;;;;;;9.20;4.20;;;;;;;10.08;96.14;99157.10;105155;1269;73825;-83
2023/04/19 01:23:20;;;;;;;8.50;4.70;;;;;;;10.14;95.38;99155.56;104953;1265;63058;-84
2023/04/19 01:25:49;;;;;;;6.10;4.20;;;;;;;10.13;97.06;99158.25;105422;1269;61404;-83
2023/04/19 01:28:17;;;;;;;6.30;4.60;;;;;;;10.00;97.82;99158.40;105416;1269;74737;-83
2023/04/19 01:30:49;;;;;;;;;;;;;;;9.94;97.86;99157.56;105489;1265;68469;-83
2023/04/19 01:33:19;;;;;;;7.10;4.60;;;;;;;9.89;98.95;99156.20;105464;1265;72191;-84
2023/04/19 01:35:48;;;;;;;6.80;4.40;;;;;;;9.94;99.56;99149.67;105311;1264;61483;-83
2023/04/19 01:38:16;;;;;;;6.40;4.30;;;;;;;9.87;99.21;99148.20;105495;1266;61265;-83
2023/04/19 01:40:44;;;;;;;5.70;4.50;;;;;;;9.77;100.00;99146.03;105352;1271;73426;-82
2023/04/19 01:43:16;;;;;;;7.60;5.60;;;;;;;9.78;100.00;99145.98;105264;1265;69651;-85
2023/04/19 01:45:44;;;;;;;5.30;4.30;;;;;;;9.70;100.00;99144.06;105091;1265;73773;-83
2023/04/19 01:48:13;;;;;;;6.30;4.50;;;;;;;9.78;100.00;99147.75;105157;1266;62885;-83
2023/04/19 01:50:41;;;;;;;5.90;4.30;;;;;;;9.59;100.00;99152.83;105264;1271;61159;-83
2023/04/19 01:53:11;;;;;;;7.90;4.80;;;;;;;9.49;100.00;99147.23;105255;1265;74454;-83
2023/04/19 01:55:39;;;;;;;5.90;4.50;;;;;;;9.48;100.00;99144.66;105333;1265;70017;-82
2023/04/19 01:58:08;;;;;;;6.90;4.60;;;;;;;9.40;100.00;99134.46;105430;1266;73494;-83
2023/04/19 02:00:36;;;;;;;8.70;4.50;;;;;;;9.31;100.00;99135.84;105344;1273;61985;-84
2023/04/19 02:03:05;;;;;;;6.00;4.50;;;;;;;9.30;100.00;99133.95;105542;1271;61231;-83
2023/04/19 02:05:33;;;;;;;4.90;4.40;;;;;;;9.54;100.00;99138.64;105422;1266;74663;-85
2023/04/19 02:08:01;;;;;;;6.20;5.00;;;;;;;9.61;100.00;99135.53;105320;1271;68639;-84
2023/04/19 02:10:30;;;;;;;6.90;4.90;;;;;;;9.62;100.00;99131.63;105403;1267;73122;-83
2023/04/19 02:12:59;;;;;;;5.10;3.80;;;;;;;9.54;100.00;99132.75;105096;1265;61628;-81
2023/04/19 02:15:28;;;;;;;5.80;4.10;;;;;;;9.51;100.00;99131.44;105377;1265;61353;-83
2023/04/19 02:17:56;;;;;;;5.70;4.30;;;;;;;9.43;100.00;99128.27;105429;1270;73891;-82
2023/04/19 02:20:24;;;;;;;5.60;4.30;;;;;;;9.51;100.00;99126.08;105358;1265;69895;-83
2023/04/19 02:22:52;;;;;;;6.50;4.20;;;;;;;9.52;100.00;99124.21;105423;1265;72361;-81
2023/04/19 02:25:21;;;;;;;4.60;4.10;;;;;;;9.51;100.00;99125.38;105401;1269;62256;-81
2023/04/19 02:27:49;;;;;;;4.60;4.10;;;;;;;9.47;100.00;99120.58;105335;1268;61325;-82
2023/04/19 02:30:18;;;;;;;4.70;3.90;;;;;;;9.56;100.00;99121.93;105283;1270;74996;-83
2023/04/19 02:32:50;;;;;;;5.80;4.40;;;;;;;9.61;100.00;99119.98;105381;1271;68353;-83
2023/04/19 02:35:18;;;;;;;6.80;4.70;;;;;;;9.74;99.94;99122.53;105240;1270;73087;-83
2023/04/19 02:37:46;;;;;;;7.10;4.80;;;;;;;9.61;99.99;99116.08;105204;1271;61358;-83
2023/04/19 02:40:14;;;;;;;7.30;4.20;;;;;;;9.62;99.80;99116.04;106049;1265;61163;-82
2023/04/19 02:42:43;;;;;;;;;;;;;;;9.63;99.50;99116.14;108737;1265;74494;-83
2023/04/19 02:45:11;;;;;;;4.70;4.20;;;;;;;9.61;100.00;99118.38;107413;1269;67838;-84
2023/04/19 02:47:39;;;;;;;;;;;;;;;9.58;100.00;99115.95;105555;1270;72438;-84
2023/04/19 02:50:08;;;;;;;9.80;4.60;;;;;;;9.50;100.00;99112.89;105350;1267;61276;-81
2023/04/19 02:52:41;;;;;;;7.20;4.50;;;;;;;9.44;100.00;99112.42;105441;1265;61271;-82
2023/04/19 02:55:09;;;;;;;5.70;4.70;;;;;;;9.63;100.00;99113.95;105282;1266;74782;-81
2023/04/19 02:57:38;;;;;;;6.50;4.90;;;;;;;9.79;100.00;99120.52;105315;1269;67885;-82
2023/04/19 03:00:08;;;;;;;8.10;5.70;;;;;;;9.70;100.00;99123.05;105345;1266;73346;-83
2023/04/19 03:02:38;;;;;;;14.70;9.40;;;;;;;9.62;99.82;99121.39;105408;1265;62777;-82
2023/04/19 03:05:07;;;;;;;23.10;15.10;;;;;;;9.36;100.00;99118.84;105299;1266;61313;-82
2023/04/19 03:07:36;;;;;;;23.30;14.60;;;;;;;9.26;100.00;99119.14;105002;1276;343556;-81
2023/04/19 03:10:05;;;;;;;;;;;;;;;9.24;100.00;99120.63;105767;1268;69609;-83
2023/04/19 03:12:33;;;;;;;21.10;13.90;;;;;;;9.23;100.00;99116.38;105278;1267;73837;-82
2023/04/19 03:15:01;;;;;;;25.40;16.60;;;;;;;9.18;100.00;99118.66;105277;1268;62010;-82
2023/04/19 03:17:29;;;;;;;22.20;16.10;;;;;;;9.08;100.00;99117.70;105207;1267;61398;-81
2023/04/19 03:19:58;;;;;;;10.30;7.80;;;;;;;9.09;100.00;99114.39;105371;1265;73946;-82
2023/04/19 03:22:26;;;;;;;7.70;5.80;;;;;;;9.08;100.00;99113.04;105576;1270;68827;-81
2023/04/19 03:24:55;;;;;;;7.00;5.10;;;;;;;9.06;100.00;99114.27;105366;1271;72896;-81
2023/04/19 03:27:24;;;;;;;5.60;4.80;;;;;;;9.10;100.00;99110.87;105362;1269;62208;-83
2023/04/19 03:29:57;;;;;;;5.50;4.90;;;;;;;9.06;100.00;99105.10;105318;1270;61167;-84
2023/04/19 03:32:26;;;;;;;6.20;4.40;;;;;;;9.11;100.00;99105.13;105352;1270;75000;-81
2023/04/19 03:34:54;;;;;;;7.50;5.10;;;;;;;9.17;100.00;99105.30;105322;1269;67572;-81
2023/04/19 03:37:22;;;;;;;5.90;5.20;;;;;;;9.17;100.00;99108.52;105298;1269;70889;-81
2023/04/19 03:39:50;;;;;;;6.40;5.30;;;;;;;9.20;100.00;99107.31;105351;1270;62013;-81
2023/04/19 03:42:23;;;;;;;10.50;6.40;;;;;;;9.30;100.00;99112.15;105435;1269;61356;-81
2023/04/19 03:45:14;;;;;;;10.80;7.40;;;;;;;9.41;100.00;99117.27;105427;1271;74479;-82
2023/04/19 03:47:46;;;;;;;11.20;6.80;;;;;;;9.41;100.00;99112.25;105467;1265;68653;-82
2023/04/19 03:50:14;;;;;;;11.30;7.20;;;;;;;9.43;100.00;99106.58;105412;1271;72554;-82
2023/04/19 03:52:45;;;;;;;8.80;6.00;;;;;;;9.48;100.00;99112.13;105411;1265;62111;-81
2023/04/19 03:55:13;;;;;;;7.60;5.90;;;;;;;9.39;100.00;99112.17;105457;1267;61287;-83
2023/04/19 03:57:41;;;;;;;15.90;7.60;;;;;;;9.22;100.00;99108.82;105391;1269;75551;-82
2023/04/19 04:00:16;;;;;;;16.00;8.90;;;;;;;9.28;100.00;99114.98;105498;1271;69329;-82
2023/04/19 04:02:48;;;;;;;13.80;8.60;;;;;;;9.38;100.00;99110.39;105346;1266;73491;-82
2023/04/19 04:05:17;;;;;;;12.60;7.30;;;;;;;9.57;100.00;99111.88;105469;1265;62254;-83
2023/04/19 04:07:45;;;;;;;;;;;;;;;9.50;100.00;99106.89;105317;1265;61263;-83
2023/04/19 04:10:14;;;;;;;9.70;7.30;;;;;;;9.55;100.00;99112.92;105321;1270;74002;-83
2023/04/19 04:12:43;;;;;;;11.40;8.30;;;;;;;9.67;100.00;99112.00;105427;1270;67902;-81
2023/04/19 04:15:14;;;;;;;18.50;12.80;;;;;;;9.59;100.00;99114.19;105403;1270;72749;-83
2023/04/19 04:17:47;;;;;;;15.70;10.90;;;;;;;9.61;100.00;99112.65;105424;1276;62208;-81
2023/04/19 04:20:15;;;;;;;14.50;9.00;;;;;;;9.72;100.00;99111.86;105304;1265;61346;-81
2023/04/19 04:22:47;;;;;;;12.20;7.70;;;;;;;9.61;100.00;99108.19;105328;1270;75293;-81
2023/04/19 04:25:17;;;;;;;12.50;6.70;;;;;;;9.67;100.00;99111.40;105422;1265;67062;-81
2023/04/19 04:27:53;;;;;;;9.50;7.40;;;;;;;9.79;100.00;99113.89;105366;1271;73436;-80
2023/04/19 04:30:22;;;;;;;11.60;7.00;;;;;;;9.85;100.00;99114.77;105520;1270;62031;-81
2023/04/19 04:32:56;;;;;;;9.80;7.10;;;;;;;9.96;100.00;99114.56;105389;1266;61281;-81
2023/04/19 04:35:27;;;;;;;13.50;8.60;;;;;;;9.98;100.00;99113.55;105172;1265;74613;-81
2023/04/19 04:38:02;;;;;;;10.30;7.10;;;;;;;10.06;100.00;99116.98;105765;1266;69664;-82
2023/04/19 04:40:42;;;;;;;15.80;9.50;;;;;;;10.25;99.76;99124.42;105266;1271;73797;-80
2023/04/19 04:43:12;;;;;;;16.20;8.80;;;;;;;10.31;98.42;99121.23;105332;1269;63166;-82
2023/04/19 04:45:43;;;;;;;15.40;8.80;;;;;;;10.39;98.43;99126.33;105403;1265;61837;-80
2023/04/19 04:48:12;;;;;;;13.20;8.30;;;;;;;10.60;97.40;99121.61;105247;1273;75435;-81
2023/04/19 04:50:40;;;;;;;12.10;7.50;;;;;;;10.76;94.59;99122.73;105396;1270;66894;-80
2023/04/19 04:53:08;;;;;;;10.60;7.20;;;;;;;10.60;95.70;99123.70;105335;1267;72601;-79
2023/04/19 04:55:41;;;;;;;10.90;6.80;;;;;;;10.49;97.69;99125.08;105624;1266;61244;-80
2023/04/19 04:58:11;;;;;;;12.80;6.50;;;;;;;10.63;98.97;99125.65;105466;1267;61377;-81
2023/04/19 05:00:50;;;;;;;8.80;6.50;;;;;;;10.49;100.00;99129.15;105454;1269;75261;-80
2023/04/19 05:03:20;;;;;;;9.50;5.30;;;;;;;10.44;100.00;99125.38;105191;1271;69886;-79
2023/04/19 05:05:53;;;;;;;7.10;5.10;;;;;;;10.39;100.00;99119.67;105340;1269;73377;-81
2023/04/19 05:08:27;;;;;;;12.70;6.00;;;;;;;10.40;100.00;99119.71;105151;1269;62737;-80
2023/04/19 05:10:59;;;;;;;8.00;5.40;;;;;;;10.15;100.00;99118.67;105181;1265;61373;-78
2023/04/19 05:13:29;;;;;;;10.00;6.50;;;;;;;10.25;100.00;99121.10;105087;1267;73960;-80
2023/04/19 05:15:59;;;;;;;8.90;5.10;;;;;;;10.75;97.85;99122.35;105313;1267;69676;-79
2023/04/19 05:18:28;;;;;;;8.30;5.80;;;;;;;10.85;96.13;99122.48;105104;1273;72676;-80
2023/04/19 05:20:56;;;;;;;8.60;5.70;;;;;;;11.19;95.21;99121.17;105310;1267;62213;-78
2023/04/19 05:23:28;;;;;;;8.00;4.70;;;;;;;11.69;88.82;99127.33;105285;1270;61182;-81
2023/04/19 05:25:57;;;;;;;;;;;;;;;11.53;87.41;99122.63;105348;1270;75220;-80
2023/04/19 05:28:26;;;;;;;7.70;5.60;;;;;;;11.56;89.29;99122.73;105434;1269;69539;-81
2023/04/19 05:31:08;;;;;;;8.60;5.00;;;;;;;11.38;90.17;99123.48;105501;1267;71758;-81
2023/04/19 05:33:43;;;;;;;8.30;5.40;;;;;;;11.20;91.78;99129.56;105528;1266;62566;-80
2023/04/19 05:36:11;;;;;;;10.30;6.00;;;;;;;11.25;93.28;99130.41;105296;1270;61311;-79
2023/04/19 05:38:40;;;;;;;7.50;6.20;;;;;;;11.26;90.53;99129.45;105174;1271;75676;-80
2023/04/19 05:41:08;;;;;;;6.40;5.30;;;;;;;11.19;93.61;99126.16;105125;1271;69996;-79
2023/04/19 05:43:36;;;;;;;10.60;6.50;;;;;;;11.20;92.12;99129.34;105107;1271;73605;-80
2023/04/19 05:46:05;;;;;;;12.90;6.10;;;;;;;11.12;93.94;99127.45;105052;1267;61393;-80
2023/04/19 05:48:33;;;;;;;;;;;;;;;11.15;94.21;99130.15;105042;1266;61497;-80
2023/04/19 05:51:10;;;;;;;8.90;5.90;;;;;;;11.29;92.60;99134.82;105061;1268;75551;-79
2023/04/19 05:53:59;;;;;;;;;;;;;;;11.29;90.57;99135.25;108044;1265;69608;-80
2023/04/19 05:56:27;;;;;;;12.60;6.70;;;;;;;10.92;91.64;99134.89;108206;1265;72606;-80
2023/04/19 05:58:55;;;;;;;;;;;;;;;11.13;92.28;99136.80;107307;1267;62086;-81
2023/04/19 06:01:24;;;;;;;13.50;8.10;;;;;;;11.36;90.95;99142.72;105081;1266;61349;-81
2023/04/19 06:03:53;;;;;;;12.30;7.40;;;;;;;11.44;90.00;99144.29;105025;1272;74719;-82
2023/04/19 06:06:22;;;;;;;9.90;7.60;;;;;;;11.40;90.89;99149.34;105339;1270;69390;-81
2023/04/19 06:08:51;;;;;;;15.20;9.20;;;;;;;11.30;92.03;99146.86;105712;1265;71476;-79
2023/04/19 06:11:22;;;;;;;11.30;7.00;;;;;;;11.27;94.48;99144.51;105016;1271;61358;-80
2023/04/19 06:14:02;;;;;;;9.30;7.00;;;;;;;11.46;92.57;99146.27;105209;1269;61194;-79
2023/04/19 06:16:31;;;;;;;8.10;6.70;;;;;;;11.25;95.69;99147.77;105303;1269;75766;-80
2023/04/19 06:18:59;;;;;;;11.90;7.20;;;;;;;11.36;96.73;99149.70;105304;1269;67225;-80
2023/04/19 06:21:31;;;;;;;;;;;;;;;11.38;94.53;99149.82;105033;1270;72394;-80
2023/04/19 06:24:00;;;;;;;15.90;9.60;;;;;;;11.38;97.79;99150.45;104761;1270;61617;-79
2023/04/19 06:26:28;;;;;;;;;;;;;;;11.55;96.06;99145.57;105235;1268;60398;-80
2023/04/19 06:28:56;;;;;;;18.10;12.10;;;;;;;11.52;96.17;99140.84;105147;1270;72735;-79
2023/04/19 06:31:24;;;;;;;10.30;6.50;;;;;;;11.34;99.44;99142.66;105198;1270;68812;-80
2023/04/19 06:33:53;;;;;;;9.70;5.40;;;;;;;11.35;99.29;99137.83;105183;1270;71936;-81
2023/04/19 06:36:21;;;;;;;10.30;7.10;;;;;;;11.35;98.92;99132.46;105180;1267;62504;-79
2023/04/19 06:38:49;;;;;;;11.30;6.40;;;;;;;11.70;97.17;99133.57;105179;1269;61290;-81
2023/04/19 06:41:18;;;;;;;10.10;6.60;;;;;;;11.91;95.84;99128.87;105053;1272;74754;-79
2023/04/19 06:43:46;;;;;;;9.90;5.80;;;;;;;11.85;95.62;99124.88;105230;1271;67884;-81
2023/04/19 06:46:15;;;;;;;8.60;6.00;;;;;;;11.89;95.61;99121.34;105247;1268;73886;-80
2023/04/19 06:48:43;;;;;;;10.30;7.10;;;;;;;11.90;97.16;99118.44;105198;1269;61383;-78
2023/04/19 06:51:11;;;;;;;12.90;7.30;;;;;;;12.04;96.64;99117.92;105195;1270;61257;-78
2023/04/19 06:53:39;;;;;;;10.90;5.30;;;;;;;12.23;92.65;99111.93;105211;1269;74434;-79
2023/04/19 06:56:09;;;;;;;10.10;5.90;;;;;;;12.08;94.98;99113.75;105236;1269;68585;-80
2023/04/19 06:58:37;;;;;;;9.80;5.40;;;;;;;11.77;99.47;99110.39;105211;1270;73691;-79
2023/04/19 07:01:06;;;;;;;8.90;6.00;;;;;;;11.82;99.04;99105.75;105285;1267;62626;-78
2023/04/19 07:03:35;;;;;;;7.00;5.80;;;;;;;11.86;99.54;99101.27;105286;1266;61264;-78
2023/04/19 07:06:03;;;;;;;7.10;5.80;;;;;;;11.89;99.39;99109.77;105382;1267;73768;-77
2023/04/19 07:08:32;;;;;;;9.40;5.80;;;;;;;11.99;99.31;99113.89;105365;1269;70016;-79
2023/04/19 07:11:17;;;;;;;10.50;6.40;;;;;;;11.95;98.77;99110.95;105366;1267;71954;-79
2023/04/19 07:13:49;;;;;;;16.40;7.40;;;;;;;12.03;99.71;99109.11;105208;1266;61289;-81
2023/04/19 07:16:17;;;;;;;8.50;7.10;;;;;;;12.20;98.52;99111.47;105052;1266;61355;-83
2023/04/19 07:18:45;;;;;;;9.20;6.10;;;;;;;12.33;98.09;99116.80;105466;1267;73562;-79
2023/04/19 07:21:13;;;;;;;11.20;6.60;;;;;;;12.37;96.17;99119.69;105666;1271;68621;-78
2023/04/19 07:23:41;;;;;;;11.10;5.80;;;;;;;12.69;94.33;99123.02;105466;1269;73639;-79
2023/04/19 07:26:10;;;;;;;13.20;4.90;;;;;;;13.30;88.42;99129.35;105651;1267;61262;-79
2023/04/19 07:28:38;;;;;;;8.30;5.60;;;;;;;13.81;84.59;99131.51;105004;1265;61334;-80
2023/04/19 07:31:06;;;;;;;8.30;5.70;;;;;;;14.45;79.80;99128.58;104982;1269;74742;-80
2023/04/19 07:33:35;;;;;;;7.80;5.40;;;;;;;14.75;78.31;99130.26;104999;1271;68553;-79
2023/04/19 07:36:03;;;;;;;9.40;5.80;;;;;;;15.03;77.49;99130.25;105133;1265;73577;-78
2023/04/19 07:38:31;;;;;;;11.70;8.10;;;;;;;14.99;75.07;99133.61;105171;1271;61309;-77
2023/04/19 07:40:59;;;;;;;13.60;6.30;;;;;;;14.63;74.23;99130.53;105076;1266;61505;-81
2023/04/19 07:43:29;;;;;;;11.00;6.00;;;;;;;14.23;75.83;99128.73;105125;1270;75274;-80
2023/04/19 07:45:57;;;;;;;6.90;5.60;;;;;;;14.00;79.38;99131.36;105080;1267;69122;-78
2023/04/19 07:48:26;;;;;;;15.50;7.20;;;;;;;13.88;81.37;99131.54;105103;1270;72804;-78
2023/04/19 07:50:54;;;;;;;;;;;;;;;14.11;81.16;99130.55;105092;1267;61465;-79
2023/04/19 07:53:22;;;;;;;;;;;;;;;14.19;79.55;99131.44;105033;1267;61303;-80
2023/04/19 07:55:50;;;;;;;13.10;6.10;;;;;;;14.39;79.17;99128.93;104962;1268;75780;-78
2023/04/19 07:58:18;;;;;;;12.30;6.60;;;;;;;14.62;78.99;99123.64;105024;1267;67809;-80
2023/04/19 08:00:47;;;;;;;8.40;5.70;;;;;;;14.75;79.21;99123.71;104875;1270;73695;-79
2023/04/19 08:03:15;;;;;;;11.90;6.80;;;;;;;14.86;79.22;99128.16;105075;1266;61597;-77
2023/04/19 08:05:44;;;;;;;11.70;7.70;;;;;;;14.77;77.60;99125.58;105109;1267;61526;-80
2023/04/19 08:08:12;;;;;;;;;;;;;;;14.74;76.86;99121.46;105133;1267;74510;-78
2023/04/19 08:10:41;;;;;;;;;;;;;;;14.85;68.68;99123.12;105249;1267;69684;-81
2023/04/19 08:13:09;;;;;;;14.20;6.00;;;;;;;14.94;67.15;99131.63;105104;1267;71678;-78
2023/04/19 08:15:37;;;;;;;11.50;6.60;;;;;;;14.96;67.12;99129.16;105130;1271;61603;-77
2023/04/19 08:18:25;;;;;;;10.60;5.70;;;;;;;14.92;67.14;99121.97;105122;1267;61268;-78
2023/04/19 08:20:55;;;;;;;10.30;7.20;;;;;;;15.01;65.99;99119.30;105092;1270;75504;-78
2023/04/19 08:23:23;;;;;;;14.00;6.30;;;;;;;14.72;66.36;99117.27;105053;1267;68738;-79
2023/04/19 08:26:05;;;;;;;16.70;7.90;;;;;;;14.75;66.82;99116.86;105050;1270;71599;-79
2023/04/19 08:28:33;;;;;;;18.60;7.20;;;;;;;14.85;64.49;99114.73;105047;1271;61281;-76
2023/04/19 08:31:04;;;;;;;16.40;8.70;;;;;;;14.71;64.19;99110.55;105062;1267;61352;-78
2023/04/19 08:33:34;;;;;;;21.00;7.90;;;;;;;14.96;61.54;99108.20;105165;1270;75058;-77
2023/04/19 08:36:04;;;;;;;20.00;9.30;;;;;;;15.28;61.08;99113.09;105109;1270;68987;-78
2023/04/19 08:38:32;;;;;;;54.60;26.70;;;;;;;16.17;58.82;99118.23;105069;1267;72360;-77
2023/04/19 08:41:00;;;;;;;19.50;7.60;;;;;;;17.06;53.52;99123.98;104986;1270;61310;-81
2023/04/19 08:43:32;;;;;;;15.80;8.10;;;;;;;17.18;49.05;99121.15;104943;1273;61201;-78
2023/04/19 08:46:00;;;;;;;24.60;7.50;;;;;;;17.52;48.98;99126.77;104954;1273;75678;-78
2023/04/19 08:48:28;;;;;;;;;;;;;;;17.84;48.22;99130.98;104972;1268;69868;-77
2023/04/19 08:50:57;;;;;;;;;;;;;;;18.26;46.32;99125.61;104913;1270;71983;-77
2023/04/19 08:53:34;;;;;;;11.80;4.10;;;;;;;18.22;45.09;99129.30;104945;1265;61362;-77
2023/04/19 08:56:03;;;;;;;38.50;17.40;;;;;;;18.45;45.16;99119.67;104901;1266;61508;-79
2023/04/19 08:58:48;;;;;;;14.00;5.80;;;;;;;18.65;44.99;99125.19;105160;1267;74782;-76
2023/04/19 09:01:19;;;;;;;5.40;3.90;;;;;;;18.92;44.18;99125.44;105216;1270;67594;-78
2023/04/19 09:04:05;;;;;;;26.70;14.90;;;;;;;18.66;43.46;99125.77;105231;1269;73072;-76
2023/04/19 09:06:54;;;;;;;26.80;12.60;;;;;;;18.24;42.52;99120.55;105428;1265;61217;-78
2023/04/19 09:09:25;;;;;;;20.00;6.90;;;;;;;17.35;41.81;99119.49;108219;1266;61194;-77
2023/04/19 09:11:58;;;;;;;20.90;11.90;;;;;;;16.98;42.79;99115.41;106697;1267;74493;-79
2023/04/19 09:14:26;;;;;;;14.30;5.10;;;;;;;16.99;43.00;99119.44;104955;1272;69803;-79
2023/04/19 09:17:15;;;;;;;45.70;19.20;;;;;;;17.05;44.15;99117.41;104985;1268;71517;-76
2023/04/19 09:19:48;;;;;;;13.00;5.90;;;;;;;17.04;44.11;99108.85;104877;1266;61296;-79
2023/04/19 09:22:17;;;;;;;14.20;5.90;;;;;;;17.10;43.97;99115.02;104790;1267;61556;-77
2023/04/19 09:24:45;;;;;;;19.90;8.80;;;;;;;17.47;44.11;99114.95;105002;1266;73796;-77
2023/04/19 09:27:35;;;;;;;14.20;7.20;;;;;;;18.21;43.68;99120.24;104932;1270;68884;-77
2023/04/19 09:30:05;;;;;;;10.40;6.10;;;;;;;18.91;42.96;99125.69;104994;1270;73081;-78
2023/04/19 09:32:46;;;;;;;19.90;5.90;;;;;;;19.51;40.78;99124.13;104951;1267;61287;-76
2023/04/19 09:35:15;;;;;;;14.60;6.70;;;;;;;19.72;40.08;99128.01;105061;1266;61357;-77
2023/04/19 09:37:57;;;;;;;;;;;;;;;19.67;39.49;99131.44;104927;1267;74748;-77
2023/04/19 09:40:34;;;;;;;24.00;10.70;;;;;;;18.85;41.23;99127.67;104994;1267;69261;-76
2023/04/19 09:43:02;;;;;;;18.20;8.10;;;;;;;18.92;40.92;99128.08;104954;1270;72940;-76
2023/04/19 09:45:41;;;;;;;11.10;6.40;;;;;;;19.11;39.87;99135.75;105021;1267;61407;-77
2023/04/19 09:48:10;;;;;;;9.90;4.80;;;;;;;19.15;40.56;99136.30;104787;1265;61221;-78
2023/04/19 09:50:53;;;;;;;13.10;3.80;;;;;;;18.85;40.84;99134.67;105077;1271;75981;-79
2023/04/19 09:53:32;;;;;;;10.80;6.00;;;;;;;19.17;40.31;99132.09;104983;1267;69645;-78
2023/04/19 09:56:01;;;;;;;20.60;11.00;;;;;;;19.48;40.88;99132.02;105113;1267;73594;-78
2023/04/19 09:58:31;;;;;;;14.90;5.60;;;;;;;19.61;40.21;99129.68;105079;1266;61480;-79
2023/04/19 10:01:02;;;;;;;21.40;5.30;;;;;;;19.50;39.81;99133.16;105165;1270;61287;-77
2023/04/19 10:03:44;;;;;;;13.70;3.90;;;;;;;19.49;39.46;99125.90;104929;1267;74080;-78
2023/04/19 10:06:18;;;;;;;9.70;3.90;;;;;;;19.30;39.37;99130.16;104951;1267;69879;-81
2023/04/19 10:08:49;;;;;;;14.00;4.00;;;;;;;19.08;39.90;99126.52;104904;1268;71469;-80
2023/04/19 10:11:20;;;;;;;22.50;8.70;;;;;;;19.12;40.30;99124.54;104997;1267;61322;-78
2023/04/19 10:13:49;;;;;;;14.30;7.20;;;;;;;18.90;41.21;99124.02;105008;1268;61281;-76
2023/04/19 10:16:17;;;;;;;;;;;;;;;18.98;41.07;99124.98;104900;1270;75256;-78
2023/04/19 10:18:48;;;;;;;13.00;4.90;;;;;;;18.97;41.22;99125.48;104907;1267;69635;-78
2023/04/19 10:21:18;;;;;;;13.30;5.50;;;;;;;19.18;41.64;99124.81;105014;1268;72966;-79
2023/04/19 10:23:46;;;;;;;9.80;5.10;;;;;;;19.31;39.97;99124.04;104922;1267;61262;-76
2023/04/19 10:26:15;;;;;;;;;;;;;;;19.06;40.72;99128.09;104830;1268;61301;-78
2023/04/19 10:28:43;;;;;;;14.60;5.30;;;;;;;18.82;41.15;99123.49;105073;1270;75252;-76
2023/04/19 10:31:14;;;;;;;18.70;8.50;;;;;;;18.60;41.95;99123.55;105036;1267;67851;-80
2023/04/19 10:33:43;;;;;;;18.50;8.40;;;;;;;18.54;42.78;99122.34;104838;1267;74072;-80
2023/04/19 10:36:13;;;;;;;;;;;;;;;18.42;43.55;99121.02;105101;1267;61310;-78
2023/04/19 10:38:50;;;;;;;13.90;5.00;;;;;;;18.53;43.19;99121.84;105157;1268;61291;-78
2023/04/19 10:41:18;;;;;;;17.20;4.90;;;;;;;18.63;42.17;99121.59;105090;1270;74116;-81
2023/04/19 10:43:59;;;;;;;12.30;4.00;;;;;;;18.64;42.74;99124.38;105030;1270;69033;-80
2023/04/19 10:46:28;;;;;;;15.60;5.60;;;;;;;18.93;42.76;99122.67;105055;1270;70786;-78
2023/04/19 10:48:58;;;;;;;13.90;7.80;;;;;;;19.22;42.24;99123.82;105042;1270;61258;-79
2023/04/19 10:51:26;;;;;;;14.00;4.50;;;;;;;19.31;41.47;99119.59;105029;1267;61303;-77
2023/04/19 10:54:17;;;;;;;16.40;4.70;;;;;;;19.26;42.07;99116.30;105159;1270;74566;-81
2023/04/19 10:57:03;;;;;;;12.00;4.50;;;;;;;18.62;43.37;99116.20;105062;1267;68665;-78
2023/04/19 10:59:36;;;;;;;31.90;9.50;;;;;;;18.55;44.10;99117.56;105200;1266;72900;-83
2023/04/19 11:02:26;;;;;;;23.50;8.10;;;;;;;18.52;43.93;99124.33;105064;1266;61250;-80
2023/04/19 11:04:55;;;;;;;14.30;5.90;;;;;;;18.68;43.62;99126.79;105106;1270;61249;-79
2023/04/19 11:07:23;;;;;;;17.70;6.90;;;;;;;18.72;42.94;99123.55;104977;1269;73841;-78
2023/04/19 11:09:51;;;;;;;;;;;;;;;18.59;42.46;99125.14;105045;1267;69541;-79
2023/04/19 11:12:21;;;;;;;16.60;4.90;;;;;;;18.62;42.78;99117.60;105200;1265;73920;-77
2023/04/19 11:14:51;;;;;;;12.80;4.70;;;;;;;18.77;43.59;99120.13;105295;1265;61240;-79
2023/04/19 11:17:27;;;;;;;17.90;8.70;;;;;;;19.11;43.37;99124.08;105343;1269;61278;-80
2023/04/19 11:19:55;;;;;;;18.30;6.50;;;;;;;19.03;43.82;99123.67;105230;1270;75483;-79
2023/04/19 11:22:59;;;;;;;12.70;4.40;;;;;;;19.00;43.51;99117.85;105260;1270;68834;-79
2023/04/19 11:25:30;;;;;;;5.70;3.60;;;;;;;19.04;44.14;99119.45;104700;1276;73504;-78
2023/04/19 11:27:58;;;;;;;20.00;4.50;;;;;;;18.84;43.54;99120.33;104687;1274;61275;-82
2023/04/19 11:30:29;;;;;;;13.00;4.30;;;;;;;18.71;43.63;99128.63;104386;1274;61449;-81
2023/04/19 11:32:58;;;;;;;10.20;4.20;;;;;;;18.71;43.43;99128.77;104715;1274;75588;-83
2023/04/19 11:35:26;;;;;;;;;;;;;;;18.82;43.54;99123.02;104803;1276;68502;-77
2023/04/19 11:37:55;;;;;;;13.40;4.00;;;;;;;19.05;43.31;99127.88;104760;1276;70719;-80
2023/04/19 11:40:27;;;;;;;12.80;4.70;;;;;;;19.39;43.06;99118.23;104636;1276;61259;-77
2023/04/19 11:42:59;;;;;;;9.50;4.40;;;;;;;19.42;42.62;99122.32;104670;1273;61488;-79